sensor_id;sensor_type;location;lat;lon;timestamp;temperature;humidity
46488;DHT22;32202;48.780;9.204;2022-10-31T00:00:55;13.20;99.90
46488;DHT22;32202;48.780;9.204;2022-10-31T00:03:21;13.20;99.90
46488;DHT22;32202;48.780;9.204;2022-10-31T00:05:48;13.20;99.90
46488;DHT22;32202;48.780;9.204;2022-10-31T00:08:15;13.10;99.90
46488;DHT22;32202;48.780;9.204;2022-10-31T00:10:42;13.10;99.90
46488;DHT22;32202;48.780;9.204;2022-10-31T00:13:09;13.10;99.90
46488;DHT22;32202;48.780;9.204;2022-10-31T00:15:36;13.20;99.90
46488;DHT22;32202;48.780;9.204;2022-10-31T00:18:03;13.20;99.90
46488;DHT22;32202;48.780;9.204;2022-10-31T00:20:29;13.10;99.90
46488;DHT22;32202;48.780;9.204;2022-10-31T00:22:59;13.10;99.90
46488;DHT22;32202;48.780;9.204;2022-10-31T00:25:26;13.10;99.90
46488;DHT22;32202;48.780;9.204;2022-10-31T00:27:52;13.00;99.90
46488;DHT22;32202;48.780;9.204;2022-10-31T00:30:17;13.00;99.90
46488;DHT22;32202;48.780;9.204;2022-10-31T00:32:43;13.00;99.90
46488;DHT22;32202;48.780;9.204;2022-10-31T00:35:08;12.90;99.90
46488;DHT22;32202;48.780;9.204;2022-10-31T00:37:34;12.90;99.90
46488;DHT22;32202;48.780;9.204;2022-10-31T00:39:59;12.90;99.90
46488;DHT22;32202;48.780;9.204;2022-10-31T00:42:25;12.80;99.90
46488;DHT22;32202;48.780;9.204;2022-10-31T00:44:51;12.80;99.90
46488;DHT22;32202;48.780;9.204;2022-10-31T00:47:16;12.80;99.90
46488;DHT22;32202;48.780;9.204;2022-10-31T00:49:42;12.80;99.90
46488;DHT22;32202;48.780;9.204;2022-10-31T00:52:07;12.80;99.90
46488;DHT22;32202;48.780;9.204;2022-10-31T00:54:33;12.80;99.90
46488;DHT22;32202;48.780;9.204;2022-10-31T00:56:58;12.70;99.90
46488;DHT22;32202;48.780;9.204;2022-10-31T00:59:24;12.70;99.90
46488;DHT22;32202;48.780;9.204;2022-10-31T01:01:49;12.70;99.90
46488;DHT22;32202;48.780;9.204;2022-10-31T01:04:15;12.70;99.90
46488;DHT22;32202;48.780;9.204;2022-10-31T01:06:41;12.60;99.90
46488;DHT22;32202;48.780;9.204;2022-10-31T01:09:07;12.60;99.90
46488;DHT22;32202;48.780;9.204;2022-10-31T01:11:33;12.50;99.90
46488;DHT22;32202;48.780;9.204;2022-10-31T01:13:58;12.50;99.90
46488;DHT22;32202;48.780;9.204;2022-10-31T01:16:27;12.50;99.90
46488;DHT22;32202;48.780;9.204;2022-10-31T01:18:54;12.50;99.90
46488;DHT22;32202;48.780;9.204;2022-10-31T01:21:26;12.50;99.90
46488;DHT22;32202;48.780;9.204;2022-10-31T01:23:55;12.50;99.90
46488;DHT22;32202;48.780;9.204;2022-10-31T01:26:26;12.50;99.90
46488;DHT22;32202;48.780;9.204;2022-10-31T01:28:59;12.50;99.90
46488;DHT22;32202;48.780;9.204;2022-10-31T01:31:31;12.50;99.90
46488;DHT22;32202;48.780;9.204;2022-10-31T01:33:58;12.40;99.90
46488;DHT22;32202;48.780;9.204;2022-10-31T01:36:32;12.40;99.90
46488;DHT22;32202;48.780;9.204;2022-10-31T01:39:07;12.40;99.90
46488;DHT22;32202;48.780;9.204;2022-10-31T01:41:36;12.40;99.90
46488;DHT22;32202;48.780;9.204;2022-10-31T01:44:47;12.40;99.90
46488;DHT22;32202;48.780;9.204;2022-10-31T01:46:58;12.40;99.90
46488;DHT22;32202;48.780;9.204;2022-10-31T01:49:40;12.50;99.90
46488;DHT22;32202;48.780;9.204;2022-10-31T01:52:40;12.40;99.90
46488;DHT22;32202;48.780;9.204;2022-10-31T01:55:13;12.40;99.90
46488;DHT22;32202;48.780;9.204;2022-10-31T01:57:42;12.40;99.90
46488;DHT22;32202;48.780;9.204;2022-10-31T02:00:10;12.40;99.90
46488;DHT22;32202;48.780;9.204;2022-10-31T02:02:36;12.30;99.90
46488;DHT22;32202;48.780;9.204;2022-10-31T02:05:05;12.40;99.90
46488;DHT22;32202;48.780;9.204;2022-10-31T02:07:40;12.30;99.90
46488;DHT22;32202;48.780;9.204;2022-10-31T02:10:07;12.40;99.90
46488;DHT22;32202;48.780;9.204;2022-10-31T02:12:34;12.30;99.90
46488;DHT22;32202;48.780;9.204;2022-10-31T02:15:01;12.30;99.90
46488;DHT22;32202;48.780;9.204;2022-10-31T02:17:29;12.30;99.90
46488;DHT22;32202;48.780;9.204;2022-10-31T02:20:12;12.30;99.90
46488;DHT22;32202;48.780;9.204;2022-10-31T02:34:21;12.30;99.90
46488;DHT22;32202;48.780;9.204;2022-10-31T02:39:48;12.20;99.90
46488;DHT22;32202;48.780;9.204;2022-10-31T02:42:34;12.30;99.90
46488;DHT22;32202;48.780;9.204;2022-10-31T02:48:19;12.10;99.90
46488;DHT22;32202;48.780;9.204;2022-10-31T02:50:52;12.10;99.90
46488;DHT22;32202;48.780;9.204;2022-10-31T02:53:19;12.10;99.90
46488;DHT22;32202;48.780;9.204;2022-10-31T02:55:59;12.10;99.90
46488;DHT22;32202;48.780;9.204;2022-10-31T02:58:30;12.10;99.90
46488;DHT22;32202;48.780;9.204;2022-10-31T03:06:33;12.00;99.90
46488;DHT22;32202;48.780;9.204;2022-10-31T03:09:14;12.00;99.90
46488;DHT22;32202;48.780;9.204;2022-10-31T03:12:14;11.90;99.90
46488;DHT22;32202;48.780;9.204;2022-10-31T03:14:53;11.90;99.90
46488;DHT22;32202;48.780;9.204;2022-10-31T03:17:36;11.90;99.90
46488;DHT22;32202;48.780;9.204;2022-10-31T03:20:04;11.80;99.90
46488;DHT22;32202;48.780;9.204;2022-10-31T03:22:32;11.80;99.90
46488;DHT22;32202;48.780;9.204;2022-10-31T03:25:00;11.80;99.90
46488;DHT22;32202;48.780;9.204;2022-10-31T03:27:29;11.70;99.90
46488;DHT22;32202;48.780;9.204;2022-10-31T03:29:58;11.70;99.90
46488;DHT22;32202;48.780;9.204;2022-10-31T03:32:31;11.70;99.90
46488;DHT22;32202;48.780;9.204;2022-10-31T03:35:01;11.80;99.90
46488;DHT22;32202;48.780;9.204;2022-10-31T03:37:30;11.80;99.90
46488;DHT22;32202;48.780;9.204;2022-10-31T03:39:58;11.80;99.90
46488;DHT22;32202;48.780;9.204;2022-10-31T03:42:29;11.80;99.90
46488;DHT22;32202;48.780;9.204;2022-10-31T03:47:37;11.70;99.90
46488;DHT22;32202;48.780;9.204;2022-10-31T03:50:05;11.70;99.90
46488;DHT22;32202;48.780;9.204;2022-10-31T03:55:12;11.80;99.90
46488;DHT22;32202;48.780;9.204;2022-10-31T03:57:53;11.80;99.90
46488;DHT22;32202;48.780;9.204;2022-10-31T04:00:23;11.80;99.90
46488;DHT22;32202;48.780;9.204;2022-10-31T04:03:00;11.80;99.90
46488;DHT22;32202;48.780;9.204;2022-10-31T04:05:27;11.80;99.90
46488;DHT22;32202;48.780;9.204;2022-10-31T04:07:55;11.80;99.90
46488;DHT22;32202;48.780;9.204;2022-10-31T04:10:23;11.70;99.90
46488;DHT22;32202;48.780;9.204;2022-10-31T04:12:57;11.80;99.90
46488;DHT22;32202;48.780;9.204;2022-10-31T04:15:25;11.80;99.90
46488;DHT22;32202;48.780;9.204;2022-10-31T04:17:55;11.70;99.90
46488;DHT22;32202;48.780;9.204;2022-10-31T04:20:30;11.70;99.90
46488;DHT22;32202;48.780;9.204;2022-10-31T04:22:56;11.70;99.90
46488;DHT22;32202;48.780;9.204;2022-10-31T04:25:21;11.70;99.90
46488;DHT22;32202;48.780;9.204;2022-10-31T04:27:47;11.70;99.90
46488;DHT22;32202;48.780;9.204;2022-10-31T04:30:12;11.70;99.90
46488;DHT22;32202;48.780;9.204;2022-10-31T04:32:38;11.60;99.90
46488;DHT22;32202;48.780;9.204;2022-10-31T04:35:04;11.60;99.90
46488;DHT22;32202;48.780;9.204;2022-10-31T04:37:29;11.60;99.90
46488;DHT22;32202;48.780;9.204;2022-10-31T04:39:55;11.60;99.90
46488;DHT22;32202;48.780;9.204;2022-10-31T04:42:20;11.50;99.90
46488;DHT22;32202;48.780;9.204;2022-10-31T04:44:46;11.50;99.90
46488;DHT22;32202;48.780;9.204;2022-10-31T04:47:11;11.50;99.90
46488;DHT22;32202;48.780;9.204;2022-10-31T04:49:37;11.50;99.90
46488;DHT22;32202;48.780;9.204;2022-10-31T04:52:03;11.50;99.90
46488;DHT22;32202;48.780;9.204;2022-10-31T04:54:29;11.50;99.90
46488;DHT22;32202;48.780;9.204;2022-10-31T04:56:54;11.50;99.90
46488;DHT22;32202;48.780;9.204;2022-10-31T04:59:20;11.40;99.90
46488;DHT22;32202;48.780;9.204;2022-10-31T05:01:45;11.40;99.90
46488;DHT22;32202;48.780;9.204;2022-10-31T05:04:11;11.40;99.90
46488;DHT22;32202;48.780;9.204;2022-10-31T05:06:36;11.30;99.90
46488;DHT22;32202;48.780;9.204;2022-10-31T05:09:02;11.40;99.90
46488;DHT22;32202;48.780;9.204;2022-10-31T05:11:28;11.40;99.90
46488;DHT22;32202;48.780;9.204;2022-10-31T05:13:53;11.30;99.90
46488;DHT22;32202;48.780;9.204;2022-10-31T05:16:19;11.30;99.90
46488;DHT22;32202;48.780;9.204;2022-10-31T05:18:44;11.30;99.90
46488;DHT22;32202;48.780;9.204;2022-10-31T05:21:10;11.20;99.90
46488;DHT22;32202;48.780;9.204;2022-10-31T05:23:35;11.20;99.90
46488;DHT22;32202;48.780;9.204;2022-10-31T05:26:01;11.20;99.90
46488;DHT22;32202;48.780;9.204;2022-10-31T05:28:26;11.20;99.90
46488;DHT22;32202;48.780;9.204;2022-10-31T05:30:52;11.20;99.90
46488;DHT22;32202;48.780;9.204;2022-10-31T05:33:17;11.20;99.90
46488;DHT22;32202;48.780;9.204;2022-10-31T05:35:43;11.20;99.90
46488;DHT22;32202;48.780;9.204;2022-10-31T05:38:09;11.20;99.90
46488;DHT22;32202;48.780;9.204;2022-10-31T05:40:34;11.20;99.90
46488;DHT22;32202;48.780;9.204;2022-10-31T05:43:00;11.20;99.90
46488;DHT22;32202;48.780;9.204;2022-10-31T05:45:25;11.10;99.90
46488;DHT22;32202;48.780;9.204;2022-10-31T05:47:53;11.10;99.90
46488;DHT22;32202;48.780;9.204;2022-10-31T05:50:19;11.10;99.90
46488;DHT22;32202;48.780;9.204;2022-10-31T05:52:45;11.10;99.90
46488;DHT22;32202;48.780;9.204;2022-10-31T05:55:10;11.00;99.90
46488;DHT22;32202;48.780;9.204;2022-10-31T05:57:36;11.00;99.90
46488;DHT22;32202;48.780;9.204;2022-10-31T06:00:03;11.00;99.90
46488;DHT22;32202;48.780;9.204;2022-10-31T06:02:29;11.10;99.90
46488;DHT22;32202;48.780;9.204;2022-10-31T06:05:00;11.10;99.90
46488;DHT22;32202;48.780;9.204;2022-10-31T06:07:25;11.10;99.90
46488;DHT22;32202;48.780;9.204;2022-10-31T06:09:51;11.10;99.90
46488;DHT22;32202;48.780;9.204;2022-10-31T06:12:16;11.10;99.90
46488;DHT22;32202;48.780;9.204;2022-10-31T06:14:42;11.10;99.90
46488;DHT22;32202;48.780;9.204;2022-10-31T06:17:07;11.10;99.90
46488;DHT22;32202;48.780;9.204;2022-10-31T06:19:33;11.20;99.90
46488;DHT22;32202;48.780;9.204;2022-10-31T06:21:58;11.20;99.90
46488;DHT22;32202;48.780;9.204;2022-10-31T06:24:24;11.20;99.90
46488;DHT22;32202;48.780;9.204;2022-10-31T06:26:50;11.30;99.90
46488;DHT22;32202;48.780;9.204;2022-10-31T06:29:15;11.30;99.90
46488;DHT22;32202;48.780;9.204;2022-10-31T06:31:41;11.30;99.90
46488;DHT22;32202;48.780;9.204;2022-10-31T06:34:06;11.40;99.90
46488;DHT22;32202;48.780;9.204;2022-10-31T06:36:32;11.50;99.90
46488;DHT22;32202;48.780;9.204;2022-10-31T06:38:57;11.50;99.90
46488;DHT22;32202;48.780;9.204;2022-10-31T06:41:23;11.60;99.90
46488;DHT22;32202;48.780;9.204;2022-10-31T06:43:48;11.60;99.90
46488;DHT22;32202;48.780;9.204;2022-10-31T06:46:14;11.70;99.90
46488;DHT22;32202;48.780;9.204;2022-10-31T06:48:43;11.80;99.90
46488;DHT22;32202;48.780;9.204;2022-10-31T06:51:08;11.90;99.90
46488;DHT22;32202;48.780;9.204;2022-10-31T06:53:34;11.90;99.90
46488;DHT22;32202;48.780;9.204;2022-10-31T06:56:00;11.90;99.90
46488;DHT22;32202;48.780;9.204;2022-10-31T06:58:25;11.90;99.90
46488;DHT22;32202;48.780;9.204;2022-10-31T07:00:51;11.90;99.90
46488;DHT22;32202;48.780;9.204;2022-10-31T07:03:17;12.00;99.90
46488;DHT22;32202;48.780;9.204;2022-10-31T07:05:45;12.10;99.90
46488;DHT22;32202;48.780;9.204;2022-10-31T07:08:12;12.20;99.90
46488;DHT22;32202;48.780;9.204;2022-10-31T07:10:39;12.30;99.90
46488;DHT22;32202;48.780;9.204;2022-10-31T07:13:13;12.40;99.90
46488;DHT22;32202;48.780;9.204;2022-10-31T07:15:40;12.50;99.90
46488;DHT22;32202;48.780;9.204;2022-10-31T07:18:07;12.70;99.90
46488;DHT22;32202;48.780;9.204;2022-10-31T07:20:34;12.80;99.90
46488;DHT22;32202;48.780;9.204;2022-10-31T07:22:59;13.00;99.90
46488;DHT22;32202;48.780;9.204;2022-10-31T07:25:26;13.10;99.90
46488;DHT22;32202;48.780;9.204;2022-10-31T07:27:52;13.20;99.90
46488;DHT22;32202;48.780;9.204;2022-10-31T07:30:17;13.30;99.90
46488;DHT22;32202;48.780;9.204;2022-10-31T07:32:46;13.40;99.90
46488;DHT22;32202;48.780;9.204;2022-10-31T07:35:20;13.60;99.90
46488;DHT22;32202;48.780;9.204;2022-10-31T07:37:47;13.70;99.90
46488;DHT22;32202;48.780;9.204;2022-10-31T07:40:13;13.70;99.90
46488;DHT22;32202;48.780;9.204;2022-10-31T07:42:41;13.80;99.90
46488;DHT22;32202;48.780;9.204;2022-10-31T07:45:09;14.00;99.90
46488;DHT22;32202;48.780;9.204;2022-10-31T07:47:42;14.10;99.90
46488;DHT22;32202;48.780;9.204;2022-10-31T07:50:11;14.20;99.90
46488;DHT22;32202;48.780;9.204;2022-10-31T07:52:37;14.40;99.90
46488;DHT22;32202;48.780;9.204;2022-10-31T07:55:04;14.50;99.90
46488;DHT22;32202;48.780;9.204;2022-10-31T07:57:30;14.70;99.90
46488;DHT22;32202;48.780;9.204;2022-10-31T07:59:55;14.90;99.90
46488;DHT22;32202;48.780;9.204;2022-10-31T08:02:21;15.00;99.90
46488;DHT22;32202;48.780;9.204;2022-10-31T08:04:47;15.20;99.90
46488;DHT22;32202;48.780;9.204;2022-10-31T08:07:12;15.40;99.50
46488;DHT22;32202;48.780;9.204;2022-10-31T08:09:38;15.70;98.60
46488;DHT22;32202;48.780;9.204;2022-10-31T08:12:04;15.90;98.00
46488;DHT22;32202;48.780;9.204;2022-10-31T08:14:29;16.10;96.80
46488;DHT22;32202;48.780;9.204;2022-10-31T08:16:56;16.30;95.70
46488;DHT22;32202;48.780;9.204;2022-10-31T08:19:21;16.40;95.20
46488;DHT22;32202;48.780;9.204;2022-10-31T08:21:50;16.60;95.10
46488;DHT22;32202;48.780;9.204;2022-10-31T08:24:16;16.80;96.00
46488;DHT22;32202;48.780;9.204;2022-10-31T08:26:42;16.90;94.10
46488;DHT22;32202;48.780;9.204;2022-10-31T08:29:07;17.10;93.30
46488;DHT22;32202;48.780;9.204;2022-10-31T08:31:33;17.20;92.40
46488;DHT22;32202;48.780;9.204;2022-10-31T08:33:59;17.40;91.80
46488;DHT22;32202;48.780;9.204;2022-10-31T08:36:24;17.60;91.40
46488;DHT22;32202;48.780;9.204;2022-10-31T08:38:50;17.80;90.40
46488;DHT22;32202;48.780;9.204;2022-10-31T08:41:15;18.20;87.90
46488;DHT22;32202;48.780;9.204;2022-10-31T08:43:41;18.50;84.30
46488;DHT22;32202;48.780;9.204;2022-10-31T08:46:07;18.80;83.40
46488;DHT22;32202;48.780;9.204;2022-10-31T08:48:32;19.00;80.40
46488;DHT22;32202;48.780;9.204;2022-10-31T08:50:59;19.30;78.50
46488;DHT22;32202;48.780;9.204;2022-10-31T08:53:25;19.60;77.70
46488;DHT22;32202;48.780;9.204;2022-10-31T08:55:54;19.90;74.90
46488;DHT22;32202;48.780;9.204;2022-10-31T08:58:20;20.30;73.00
46488;DHT22;32202;48.780;9.204;2022-10-31T09:00:48;20.60;71.30
46488;DHT22;32202;48.780;9.204;2022-10-31T09:03:25;20.70;70.90
46488;DHT22;32202;48.780;9.204;2022-10-31T09:05:55;20.90;69.90
46488;DHT22;32202;48.780;9.204;2022-10-31T09:08:21;21.20;68.20
46488;DHT22;32202;48.780;9.204;2022-10-31T09:10:46;21.20;67.90
46488;DHT22;32202;48.780;9.204;2022-10-31T09:13:14;21.20;68.00
46488;DHT22;32202;48.780;9.204;2022-10-31T09:15:42;21.20;67.10
46488;DHT22;32202;48.780;9.204;2022-10-31T09:18:09;21.00;67.60
46488;DHT22;32202;48.780;9.204;2022-10-31T09:20:36;21.00;67.60
46488;DHT22;32202;48.780;9.204;2022-10-31T09:23:06;21.10;67.40
46488;DHT22;32202;48.780;9.204;2022-10-31T09:25:33;21.00;67.50
46488;DHT22;32202;48.780;9.204;2022-10-31T09:28:00;20.80;68.50
46488;DHT22;32202;48.780;9.204;2022-10-31T09:30:28;20.70;68.20
46488;DHT22;32202;48.780;9.204;2022-10-31T09:32:55;20.70;68.40
46488;DHT22;32202;48.780;9.204;2022-10-31T09:35:22;20.70;68.30
46488;DHT22;32202;48.780;9.204;2022-10-31T09:37:54;20.70;68.20
46488;DHT22;32202;48.780;9.204;2022-10-31T09:40:20;20.80;68.30
46488;DHT22;32202;48.780;9.204;2022-10-31T09:43:02;20.80;68.10
46488;DHT22;32202;48.780;9.204;2022-10-31T09:46:00;20.70;68.20
46488;DHT22;32202;48.780;9.204;2022-10-31T09:51:05;20.60;68.40
46488;DHT22;32202;48.780;9.204;2022-10-31T09:53:37;20.80;68.60
46488;DHT22;32202;48.780;9.204;2022-10-31T09:56:13;21.00;68.00
46488;DHT22;32202;48.780;9.204;2022-10-31T09:58:45;21.40;66.70
46488;DHT22;32202;48.780;9.204;2022-10-31T10:03:53;21.90;65.10
46488;DHT22;32202;48.780;9.204;2022-10-31T10:06:26;22.10;64.10
46488;DHT22;32202;48.780;9.204;2022-10-31T10:08:52;22.30;63.60
46488;DHT22;32202;48.780;9.204;2022-10-31T10:17:25;23.10;61.10
46488;DHT22;32202;48.780;9.204;2022-10-31T10:25:23;23.60;59.90
46488;DHT22;32202;48.780;9.204;2022-10-31T10:28:10;23.60;60.20
46488;DHT22;32202;48.780;9.204;2022-10-31T10:36:00;23.70;59.40
46488;DHT22;32202;48.780;9.204;2022-10-31T10:38:37;23.60;59.70
46488;DHT22;32202;48.780;9.204;2022-10-31T10:41:14;23.70;59.90
46488;DHT22;32202;48.780;9.204;2022-10-31T10:43:40;23.70;59.10
46488;DHT22;32202;48.780;9.204;2022-10-31T10:59:54;22.10;63.50
46488;DHT22;32202;48.780;9.204;2022-10-31T11:02:23;21.90;64.40
46488;DHT22;32202;48.780;9.204;2022-10-31T11:04:56;21.70;65.00
46488;DHT22;32202;48.780;9.204;2022-10-31T11:07:22;21.60;65.60
46488;DHT22;32202;48.780;9.204;2022-10-31T11:09:48;21.40;66.40
46488;DHT22;32202;48.780;9.204;2022-10-31T11:12:28;21.20;67.10
46488;DHT22;32202;48.780;9.204;2022-10-31T11:14:55;21.10;67.80
46488;DHT22;32202;48.780;9.204;2022-10-31T11:22:49;21.60;67.20
46488;DHT22;32202;48.780;9.204;2022-10-31T11:25:26;22.20;66.20
46488;DHT22;32202;48.780;9.204;2022-10-31T11:28:10;23.30;63.50
46488;DHT22;32202;48.780;9.204;2022-10-31T11:30:48;24.50;60.60
46488;DHT22;32202;48.780;9.204;2022-10-31T11:33:28;25.50;58.00
46488;DHT22;32202;48.780;9.204;2022-10-31T11:35:55;26.00;56.50
46488;DHT22;32202;48.780;9.204;2022-10-31T11:38:24;26.30;55.40
46488;DHT22;32202;48.780;9.204;2022-10-31T11:41:08;26.40;55.20
46488;DHT22;32202;48.780;9.204;2022-10-31T11:43:35;26.70;54.50
46488;DHT22;32202;48.780;9.204;2022-10-31T11:46:09;27.00;53.80
46488;DHT22;32202;48.780;9.204;2022-10-31T11:48:36;27.20;53.70
46488;DHT22;32202;48.780;9.204;2022-10-31T11:51:02;27.30;53.00
46488;DHT22;32202;48.780;9.204;2022-10-31T11:53:32;27.40;52.70
46488;DHT22;32202;48.780;9.204;2022-10-31T11:56:12;27.30;52.90
46488;DHT22;32202;48.780;9.204;2022-10-31T11:58:38;27.20;53.00
46488;DHT22;32202;48.780;9.204;2022-10-31T12:01:04;27.10;52.90
46488;DHT22;32202;48.780;9.204;2022-10-31T12:06:32;26.90;53.20
46488;DHT22;32202;48.780;9.204;2022-10-31T12:08:59;26.50;53.70
46488;DHT22;32202;48.780;9.204;2022-10-31T12:11:34;26.20;54.50
46488;DHT22;32202;48.780;9.204;2022-10-31T12:14:26;25.90;55.10
46488;DHT22;32202;48.780;9.204;2022-10-31T12:17:05;25.50;55.90
46488;DHT22;32202;48.780;9.204;2022-10-31T12:19:46;25.20;56.50
46488;DHT22;32202;48.780;9.204;2022-10-31T12:22:35;25.30;56.30
46488;DHT22;32202;48.780;9.204;2022-10-31T12:42:26;25.10;56.20
46488;DHT22;32202;48.780;9.204;2022-10-31T12:47:55;24.10;58.50
46488;DHT22;32202;48.780;9.204;2022-10-31T12:50:35;23.40;60.30
46488;DHT22;32202;48.780;9.204;2022-10-31T13:01:51;22.00;64.60
46488;DHT22;32202;48.780;9.204;2022-10-31T13:04:29;21.90;65.20
46488;DHT22;32202;48.780;9.204;2022-10-31T13:07:03;21.70;65.80
46488;DHT22;32202;48.780;9.204;2022-10-31T13:09:38;21.50;66.40
46488;DHT22;32202;48.780;9.204;2022-10-31T13:12:09;21.40;67.10
46488;DHT22;32202;48.780;9.204;2022-10-31T13:15:04;21.30;68.00
46488;DHT22;32202;48.780;9.204;2022-10-31T13:17:39;21.20;68.60
46488;DHT22;32202;48.780;9.204;2022-10-31T13:20:27;21.10;69.10
46488;DHT22;32202;48.780;9.204;2022-10-31T13:22:56;21.00;68.10
46488;DHT22;32202;48.780;9.204;2022-10-31T13:25:30;20.90;68.60
46488;DHT22;32202;48.780;9.204;2022-10-31T13:27:58;20.80;69.30
46488;DHT22;32202;48.780;9.204;2022-10-31T13:30:28;20.80;69.50
46488;DHT22;32202;48.780;9.204;2022-10-31T13:33:13;20.70;69.80
46488;DHT22;32202;48.780;9.204;2022-10-31T13:36:02;20.60;70.40
46488;DHT22;32202;48.780;9.204;2022-10-31T13:44:16;21.00;70.50
46488;DHT22;32202;48.780;9.204;2022-10-31T13:46:43;21.80;69.10
46488;DHT22;32202;48.780;9.204;2022-10-31T13:52:05;24.40;62.10
46488;DHT22;32202;48.780;9.204;2022-10-31T13:54:34;25.10;59.30
46488;DHT22;32202;48.780;9.204;2022-10-31T13:57:00;25.30;58.40
46488;DHT22;32202;48.780;9.204;2022-10-31T13:59:28;25.00;58.70
46488;DHT22;32202;48.780;9.204;2022-10-31T14:02:02;24.80;59.70
46488;DHT22;32202;48.780;9.204;2022-10-31T14:04:57;24.80;60.10
46488;DHT22;32202;48.780;9.204;2022-10-31T14:07:24;24.60;59.80
46488;DHT22;32202;48.780;9.204;2022-10-31T14:12:34;23.80;61.60
46488;DHT22;32202;48.780;9.204;2022-10-31T14:15:12;23.50;62.50
46488;DHT22;32202;48.780;9.204;2022-10-31T14:17:52;23.20;63.60
46488;DHT22;32202;48.780;9.204;2022-10-31T14:20:31;23.00;64.30
46488;DHT22;32202;48.780;9.204;2022-10-31T14:22:58;23.00;64.80
46488;DHT22;32202;48.780;9.204;2022-10-31T14:25:32;22.90;65.10
46488;DHT22;32202;48.780;9.204;2022-10-31T14:28:01;22.70;65.50
46488;DHT22;32202;48.780;9.204;2022-10-31T14:30:28;22.50;66.20
46488;DHT22;32202;48.780;9.204;2022-10-31T14:33:15;22.30;66.70
46488;DHT22;32202;48.780;9.204;2022-10-31T14:35:59;22.30;67.10
46488;DHT22;32202;48.780;9.204;2022-10-31T14:43:40;21.90;68.60
46488;DHT22;32202;48.780;9.204;2022-10-31T14:46:31;21.50;69.60
46488;DHT22;32202;48.780;9.204;2022-10-31T14:51:39;21.00;72.00
46488;DHT22;32202;48.780;9.204;2022-10-31T14:54:11;20.80;73.30
46488;DHT22;32202;48.780;9.204;2022-10-31T14:56:50;20.50;74.30
46488;DHT22;32202;48.780;9.204;2022-10-31T14:59:24;20.20;75.60
46488;DHT22;32202;48.780;9.204;2022-10-31T15:02:07;20.00;76.90
46488;DHT22;32202;48.780;9.204;2022-10-31T15:04:35;19.90;78.20
46488;DHT22;32202;48.780;9.204;2022-10-31T15:07:10;19.80;79.30
46488;DHT22;32202;48.780;9.204;2022-10-31T15:09:37;19.60;80.60
46488;DHT22;32202;48.780;9.204;2022-10-31T15:12:25;19.50;81.80
46488;DHT22;32202;48.780;9.204;2022-10-31T15:14:51;19.40;83.30
46488;DHT22;32202;48.780;9.204;2022-10-31T15:17:17;19.40;84.20
46488;DHT22;32202;48.780;9.204;2022-10-31T15:19:44;19.30;85.20
46488;DHT22;32202;48.780;9.204;2022-10-31T15:22:22;19.20;86.40
46488;DHT22;32202;48.780;9.204;2022-10-31T15:24:48;19.10;87.80
46488;DHT22;32202;48.780;9.204;2022-10-31T15:27:21;19.00;89.10
46488;DHT22;32202;48.780;9.204;2022-10-31T15:29:54;18.90;90.10
46488;DHT22;32202;48.780;9.204;2022-10-31T15:32:21;18.70;90.90
46488;DHT22;32202;48.780;9.204;2022-10-31T15:34:49;18.50;91.80
46488;DHT22;32202;48.780;9.204;2022-10-31T15:37:20;18.40;92.50
46488;DHT22;32202;48.780;9.204;2022-10-31T15:39:47;18.20;93.20
46488;DHT22;32202;48.780;9.204;2022-10-31T15:44:47;17.90;95.00
46488;DHT22;32202;48.780;9.204;2022-10-31T15:47:19;17.70;96.00
46488;DHT22;32202;48.780;9.204;2022-10-31T15:49:57;17.50;96.90
46488;DHT22;32202;48.780;9.204;2022-10-31T15:52:37;17.40;97.90
46488;DHT22;32202;48.780;9.204;2022-10-31T15:55:25;17.20;99.00
46488;DHT22;32202;48.780;9.204;2022-10-31T15:57:56;17.10;99.90
46488;DHT22;32202;48.780;9.204;2022-10-31T16:00:34;17.00;99.90
46488;DHT22;32202;48.780;9.204;2022-10-31T16:05:53;16.80;99.90
46488;DHT22;32202;48.780;9.204;2022-10-31T16:11:14;16.70;99.90
46488;DHT22;32202;48.780;9.204;2022-10-31T16:13:55;16.70;99.90
46488;DHT22;32202;48.780;9.204;2022-10-31T16:16:22;16.60;99.90
46488;DHT22;32202;48.780;9.204;2022-10-31T16:18:49;16.50;99.90
46488;DHT22;32202;48.780;9.204;2022-10-31T16:21:29;16.50;99.90
46488;DHT22;32202;48.780;9.204;2022-10-31T16:24:00;16.50;99.90
46488;DHT22;32202;48.780;9.204;2022-10-31T16:26:27;16.40;99.90
46488;DHT22;32202;48.780;9.204;2022-10-31T16:28:55;16.30;99.90
46488;DHT22;32202;48.780;9.204;2022-10-31T16:31:37;16.20;99.90
46488;DHT22;32202;48.780;9.204;2022-10-31T16:34:20;16.20;99.90
46488;DHT22;32202;48.780;9.204;2022-10-31T16:36:46;16.00;99.90
46488;DHT22;32202;48.780;9.204;2022-10-31T16:39:12;15.90;99.90
46488;DHT22;32202;48.780;9.204;2022-10-31T16:41:41;15.80;99.90
46488;DHT22;32202;48.780;9.204;2022-10-31T16:44:18;15.70;99.90
46488;DHT22;32202;48.780;9.204;2022-10-31T16:46:45;15.70;99.90
46488;DHT22;32202;48.780;9.204;2022-10-31T16:49:11;15.60;99.90
46488;DHT22;32202;48.780;9.204;2022-10-31T16:51:36;15.60;99.90
46488;DHT22;32202;48.780;9.204;2022-10-31T16:54:02;15.50;99.90
46488;DHT22;32202;48.780;9.204;2022-10-31T16:56:32;15.50;99.90
46488;DHT22;32202;48.780;9.204;2022-10-31T16:58:59;15.40;99.90
46488;DHT22;32202;48.780;9.204;2022-10-31T17:01:26;15.30;99.90
46488;DHT22;32202;48.780;9.204;2022-10-31T17:03:52;15.30;99.90
46488;DHT22;32202;48.780;9.204;2022-10-31T17:06:18;15.20;99.90
46488;DHT22;32202;48.780;9.204;2022-10-31T17:08:43;15.20;99.90
46488;DHT22;32202;48.780;9.204;2022-10-31T17:11:16;15.20;99.90
46488;DHT22;32202;48.780;9.204;2022-10-31T17:13:42;15.10;99.90
46488;DHT22;32202;48.780;9.204;2022-10-31T17:16:08;15.10;99.90
46488;DHT22;32202;48.780;9.204;2022-10-31T17:18:34;15.00;99.90
46488;DHT22;32202;48.780;9.204;2022-10-31T17:21:03;14.90;99.90
46488;DHT22;32202;48.780;9.204;2022-10-31T17:23:30;14.90;99.90
46488;DHT22;32202;48.780;9.204;2022-10-31T17:25:58;14.90;99.90
46488;DHT22;32202;48.780;9.204;2022-10-31T17:28:24;14.90;99.90
46488;DHT22;32202;48.780;9.204;2022-10-31T17:30:53;14.80;99.90
46488;DHT22;32202;48.780;9.204;2022-10-31T17:33:19;14.80;99.90
46488;DHT22;32202;48.780;9.204;2022-10-31T17:35:44;14.70;99.90
46488;DHT22;32202;48.780;9.204;2022-10-31T17:38:10;14.70;99.90
46488;DHT22;32202;48.780;9.204;2022-10-31T17:40:38;14.60;99.90
46488;DHT22;32202;48.780;9.204;2022-10-31T17:43:04;14.50;99.90
46488;DHT22;32202;48.780;9.204;2022-10-31T17:45:30;14.50;99.90
46488;DHT22;32202;48.780;9.204;2022-10-31T17:47:55;14.50;99.90
46488;DHT22;32202;48.780;9.204;2022-10-31T17:50:24;14.50;99.90
46488;DHT22;32202;48.780;9.204;2022-10-31T17:52:50;14.40;99.90
46488;DHT22;32202;48.780;9.204;2022-10-31T17:55:16;14.40;99.90